createdAt,value
2018-03-19T00:02:17.509Z,93833.89
2018-03-19T00:04:43.846Z,93830.66
2018-03-19T00:07:10.213Z,93832.66
2018-03-19T00:09:36.542Z,93833.69
2018-03-19T00:12:02.909Z,93840.36
2018-03-19T00:14:29.302Z,93853.19
2018-03-19T00:16:55.803Z,93847.66
2018-03-19T00:19:22.138Z,93849.34
2018-03-19T00:21:48.570Z,93851.64
2018-03-19T00:24:14.925Z,93850.68
2018-03-19T00:26:41.273Z,93844.07
2018-03-19T00:29:07.693Z,93844.13
2018-03-19T00:31:34.155Z,93838.71
2018-03-19T00:34:00.488Z,93842.44
2018-03-19T00:36:26.862Z,93836.64
2018-03-19T00:38:53.251Z,93839.20
2018-03-19T00:41:19.587Z,93835.50
2018-03-19T00:43:45.952Z,93832.06
2018-03-19T00:46:12.291Z,93840.69
2018-03-19T00:48:38.667Z,93847.19
2018-03-19T00:51:05.033Z,93845.15
2018-03-19T00:53:31.370Z,93847.71
2018-03-19T00:55:57.760Z,93831.95
2018-03-19T00:58:24.085Z,93847.11
2018-03-19T01:00:50.482Z,93839.20
2018-03-19T01:03:16.851Z,93844.66
2018-03-19T01:05:43.226Z,93831.84
2018-03-19T01:08:09.555Z,93847.25
2018-03-19T01:10:35.935Z,93840.95
2018-03-19T01:13:02.277Z,93849.67
2018-03-19T01:15:28.609Z,93843.11
2018-03-19T01:17:54.978Z,93821.38
2018-03-19T01:20:21.346Z,93820.52
2018-03-19T01:22:47.733Z,93825.70
2018-03-19T01:25:14.094Z,93828.86
2018-03-19T01:27:40.479Z,93829.36
2018-03-19T01:30:06.879Z,93831.92
2018-03-19T01:32:33.253Z,93845.80
2018-03-19T01:34:59.585Z,93850.19
2018-03-19T01:37:25.939Z,93840.23
2018-03-19T01:39:52.280Z,93824.41
2018-03-19T01:42:18.660Z,93829.36
2018-03-19T01:44:45.034Z,93831.16
2018-03-19T01:47:11.423Z,93822.66
2018-03-19T01:49:37.755Z,93824.55
2018-03-19T01:52:04.148Z,93821.98
2018-03-19T01:54:30.516Z,93813.73
2018-03-19T01:56:56.867Z,93821.02
2018-03-19T01:59:23.249Z,93815.16
2018-03-19T02:01:49.583Z,93821.75
2018-03-19T02:06:57.329Z,93843.20
2018-03-19T02:09:23.737Z,93838.92
2018-03-19T02:11:50.143Z,93841.63
2018-03-19T02:14:16.509Z,93828.78
2018-03-19T02:16:42.875Z,93825.69
2018-03-19T02:19:09.281Z,93834.80
2018-03-19T02:21:35.672Z,93824.02
2018-03-19T02:24:02.098Z,93828.09
2018-03-19T02:26:28.496Z,93821.53
2018-03-19T02:28:54.909Z,93831.88
2018-03-19T02:31:21.258Z,93829.44
2018-03-19T02:33:47.630Z,93842.48
2018-03-19T02:36:13.994Z,93837.09
2018-03-19T02:38:40.446Z,93837.00
2018-03-19T02:41:06.847Z,93837.23
2018-03-19T02:43:33.201Z,93831.54
2018-03-19T02:45:59.622Z,93827.29
2018-03-19T02:48:25.965Z,93825.82
2018-03-19T02:50:52.352Z,93819.27
2018-03-19T02:53:18.682Z,93829.59
2018-03-19T02:55:45.085Z,93834.41
2018-03-19T02:58:11.431Z,93812.63
2018-03-19T03:00:37.802Z,93812.77
2018-03-19T03:03:04.147Z,93815.41
2018-03-19T03:05:30.584Z,93813.33
2018-03-19T03:07:56.967Z,93803.52
2018-03-19T03:10:23.432Z,93803.66
2018-03-19T03:12:49.943Z,93791.77
2018-03-19T03:15:16.274Z,93790.84
2018-03-19T03:17:42.627Z,93789.43
2018-03-19T03:20:08.983Z,93788.22
2018-03-19T03:22:35.443Z,93804.14
2018-03-19T03:25:01.864Z,93799.53
2018-03-19T03:27:28.205Z,93789.50
2018-03-19T03:29:54.542Z,93798.70
2018-03-19T03:32:20.900Z,93790.80
2018-03-19T03:34:47.235Z,93792.67
2018-03-19T03:37:13.598Z,93791.12
2018-03-19T03:39:39.933Z,93784.91
2018-03-19T03:42:06.350Z,93786.88
2018-03-19T03:44:32.730Z,93791.27
2018-03-19T03:46:59.106Z,93781.34
2018-03-19T03:49:25.470Z,93787.34
2018-03-19T03:51:51.856Z,93786.66
2018-03-19T03:54:18.402Z,93788.14
2018-03-19T03:56:44.754Z,93788.95
2018-03-19T03:59:11.141Z,93782.92
2018-03-19T04:01:37.494Z,93769.86
2018-03-19T04:04:03.889Z,93781.73
2018-03-19T04:06:30.257Z,93773.55
2018-03-19T04:08:56.627Z,93779.09
2018-03-19T04:11:23.071Z,93780.36
2018-03-19T04:13:49.437Z,93776.25
2018-03-19T04:16:15.808Z,93765.83
2018-03-19T04:18:42.145Z,93770.94
2018-03-19T04:21:08.477Z,93776.83
2018-03-19T04:23:34.806Z,93772.72
2018-03-19T04:26:01.187Z,93777.49
2018-03-19T04:28:27.630Z,93778.16
2018-03-19T04:30:54.109Z,93778.44
2018-03-19T04:33:20.472Z,93781.86
2018-03-19T04:35:46.817Z,93784.91
2018-03-19T04:38:13.225Z,93794.37
2018-03-19T04:40:39.560Z,93791.52
2018-03-19T04:45:38.465Z,93774.06
2018-03-19T04:48:04.833Z,93780.14
2018-03-19T04:50:31.279Z,93777.20
2018-03-19T04:52:57.640Z,93774.00
2018-03-19T04:55:24.144Z,93777.04
2018-03-19T04:57:50.517Z,93775.66
2018-03-19T05:00:16.931Z,93780.08
2018-03-19T05:02:43.253Z,93786.69
2018-03-19T05:05:09.638Z,93776.63
2018-03-19T05:07:35.999Z,93795.88
2018-03-19T05:10:02.384Z,93802.08
2018-03-19T05:12:28.810Z,93783.84
2018-03-19T05:14:55.178Z,93790.73
2018-03-19T05:17:21.667Z,93788.98
2018-03-19T05:19:48.045Z,93776.91
2018-03-19T05:22:14.470Z,93775.03
2018-03-19T05:24:40.897Z,93783.98
2018-03-19T05:27:07.246Z,93780.48
2018-03-19T05:29:33.580Z,93785.45
2018-03-19T05:31:59.972Z,93783.86
2018-03-19T05:34:26.366Z,93801.25
2018-03-19T05:36:52.753Z,93797.08
2018-03-19T05:39:20.040Z,93800.31
2018-03-19T05:41:46.837Z,93796.52
2018-03-19T05:44:13.171Z,93805.10
2018-03-19T05:46:39.507Z,93779.52
2018-03-19T05:49:06.090Z,93793.71
2018-03-19T05:51:32.498Z,93791.89
2018-03-19T05:53:59.203Z,93791.19
2018-03-19T05:56:25.560Z,93801.61
2018-03-19T05:58:52.387Z,93797.86
2018-03-19T06:01:18.850Z,93808.00
2018-03-19T06:03:45.271Z,93812.14
2018-03-19T06:06:11.623Z,93813.27
2018-03-19T06:08:37.995Z,93819.15
2018-03-19T06:11:04.452Z,93818.27
2018-03-19T06:13:30.858Z,93819.52
2018-03-19T06:15:57.328Z,93804.02
2018-03-19T06:18:23.679Z,93814.07
2018-03-19T06:20:50.047Z,93826.42
2018-03-19T06:23:16.479Z,93825.66
2018-03-19T06:25:42.861Z,93808.78
2018-03-19T06:28:09.258Z,93815.95
2018-03-19T06:30:35.766Z,93809.05
2018-03-19T06:33:02.154Z,93827.09
2018-03-19T06:35:28.519Z,93815.39
2018-03-19T06:37:55.308Z,93816.69
2018-03-19T06:40:22.982Z,93822.70
2018-03-19T06:42:49.348Z,93815.92
2018-03-19T06:45:15.845Z,93813.34
2018-03-19T06:47:42.224Z,93817.24
2018-03-19T06:50:08.663Z,93817.55
2018-03-19T06:52:35.700Z,93816.02
2018-03-19T06:55:02.199Z,93829.14
2018-03-19T06:57:28.537Z,93811.17
2018-03-19T07:00:01.924Z,93829.61
2018-03-19T07:02:28.707Z,93829.36
2018-03-19T07:04:55.258Z,93822.75
2018-03-19T07:07:21.621Z,93831.28
2018-03-19T07:09:48.471Z,93828.80
2018-03-19T07:12:15.410Z,93799.34
2018-03-19T07:14:41.904Z,93807.70
2018-03-19T07:17:08.278Z,93824.22
2018-03-19T07:19:35.434Z,93803.00
2018-03-19T07:22:02.170Z,93831.98
2018-03-19T07:24:29.133Z,93818.48
2018-03-19T07:26:55.925Z,93822.36
2018-03-19T07:29:22.523Z,93836.66
2018-03-19T07:31:49.358Z,93829.02
2018-03-19T07:34:16.267Z,93821.22
2018-03-19T07:36:42.770Z,93820.20
2018-03-19T07:39:09.248Z,93804.02
2018-03-19T07:41:35.752Z,93815.08
2018-03-19T07:44:03.035Z,93806.53
2018-03-19T07:46:32.025Z,93794.13
2018-03-19T07:48:58.672Z,93793.95
2018-03-19T07:51:25.481Z,93799.20
2018-03-19T07:53:52.910Z,93803.81
2018-03-19T07:56:19.847Z,93812.99
2018-03-19T07:58:46.827Z,93816.45
2018-03-19T08:01:13.969Z,93793.73
2018-03-19T08:03:41.164Z,93799.98
2018-03-19T08:06:07.842Z,93799.88
2018-03-19T08:08:34.958Z,93794.10
2018-03-19T08:11:01.952Z,93804.73
2018-03-19T08:13:28.847Z,93804.05
2018-03-19T08:15:55.850Z,93794.78
2018-03-19T08:18:22.487Z,93797.52
2018-03-19T08:20:49.382Z,93810.77
2018-03-19T08:23:16.231Z,93784.98
2018-03-19T08:25:43.362Z,93797.55
2018-03-19T08:28:10.115Z,93800.12
2018-03-19T08:30:36.879Z,93791.59
2018-03-19T08:33:04.528Z,93783.75
2018-03-19T08:35:31.635Z,93785.99
2018-03-19T08:37:59.255Z,93774.77
2018-03-19T08:40:27.333Z,93780.70
2018-03-19T08:42:53.943Z,93793.61
2018-03-19T08:45:20.879Z,93800.48
2018-03-19T08:47:47.849Z,93795.66
2018-03-19T08:50:14.394Z,93780.18
2018-03-19T08:52:40.840Z,93772.78
2018-03-19T08:55:07.243Z,93798.95
2018-03-19T08:57:33.613Z,93800.78
2018-03-19T09:00:00.047Z,93793.17
2018-03-19T09:02:26.407Z,93788.23
2018-03-19T09:04:52.794Z,93778.98
2018-03-19T09:07:19.665Z,93807.72
2018-03-19T09:09:46.232Z,93797.98
2018-03-19T09:12:12.701Z,93799.52
2018-03-19T09:14:40.010Z,93811.80
2018-03-19T09:17:07.476Z,93812.53
2018-03-19T09:19:33.913Z,93821.47
2018-03-19T09:22:00.464Z,93809.66
2018-03-19T09:24:28.122Z,93829.85
2018-03-19T09:26:55.381Z,93825.58
2018-03-19T09:29:24.289Z,93827.08
2018-03-19T09:31:51.158Z,93823.63
2018-03-19T09:34:17.732Z,93828.52
2018-03-19T09:36:44.257Z,93829.20
2018-03-19T09:39:10.651Z,93824.73
2018-03-19T09:41:37.200Z,93836.17
2018-03-19T09:44:04.286Z,93830.91
2018-03-19T09:46:31.197Z,93826.78
2018-03-19T09:48:57.876Z,93827.74
2018-03-19T09:51:24.542Z,93823.15
2018-03-19T09:53:51.679Z,93804.20
2018-03-19T09:56:18.524Z,93821.69
2018-03-19T09:58:45.483Z,93822.17
2018-03-19T10:01:12.084Z,93807.70
2018-03-19T10:03:38.516Z,93805.48
2018-03-19T10:06:05.198Z,93799.88
2018-03-19T10:08:31.999Z,93823.16
2018-03-19T10:10:58.866Z,93792.24
2018-03-19T10:13:25.719Z,93792.09
2018-03-19T10:15:52.150Z,93802.45
2018-03-19T10:18:18.705Z,93798.73
2018-03-19T10:20:45.218Z,93804.45
2018-03-19T10:23:12.043Z,93805.03
2018-03-19T10:25:38.639Z,93801.31
2018-03-19T10:28:05.673Z,93800.90
2018-03-19T10:30:32.665Z,93796.85
2018-03-19T10:32:59.728Z,93800.14
2018-03-19T10:35:26.178Z,93793.39
2018-03-19T10:37:53.339Z,93785.12
2018-03-19T10:40:28.224Z,93799.00
2018-03-19T10:42:55.173Z,93788.25
2018-03-19T10:45:22.177Z,93768.00
2018-03-19T10:47:49.009Z,93769.36
2018-03-19T10:50:15.814Z,93783.19
2018-03-19T10:52:42.526Z,93786.96
2018-03-19T10:55:09.348Z,93777.81
2018-03-19T10:57:36.737Z,93779.44
2018-03-19T11:00:03.519Z,93779.32
2018-03-19T11:02:30.782Z,93764.18
2018-03-19T11:05:01.949Z,93769.81
2018-03-19T11:07:29.581Z,93764.89
2018-03-19T11:09:56.609Z,93772.28
2018-03-19T11:12:23.764Z,93756.72
2018-03-19T11:14:50.896Z,93761.48
2018-03-19T11:17:17.584Z,93761.78
2018-03-19T11:19:44.826Z,93744.55
2018-03-19T11:22:11.516Z,93737.23
2018-03-19T11:24:38.259Z,93736.42
2018-03-19T11:27:05.064Z,93725.61
2018-03-19T11:29:31.667Z,93735.64
2018-03-19T11:31:58.137Z,93733.63
2018-03-19T11:34:24.829Z,93737.73
2018-03-19T11:36:51.802Z,93729.64
2018-03-19T11:41:58.483Z,93744.59
2018-03-19T11:44:25.323Z,93737.64
2018-03-19T11:46:51.870Z,93735.20
2018-03-19T11:49:18.724Z,93724.20
2018-03-19T11:51:47.430Z,93736.09
2018-03-19T11:54:14.578Z,93708.03
2018-03-19T11:56:41.599Z,93711.78
2018-03-19T12:07:05.123Z,93706.34
2018-03-19T12:09:31.979Z,93715.86
2018-03-19T12:11:58.401Z,93725.61
2018-03-19T12:14:25.146Z,93710.50
2018-03-19T12:16:51.877Z,93722.45
2018-03-19T12:19:18.716Z,93719.92
2018-03-19T12:21:45.340Z,93732.88
2018-03-19T12:24:12.171Z,93729.41
2018-03-19T12:26:38.825Z,93730.41
2018-03-19T12:29:05.269Z,93715.09
2018-03-19T12:31:31.788Z,93728.02
2018-03-19T12:33:58.644Z,93716.75
2018-03-19T12:36:25.213Z,93712.59
2018-03-19T12:38:52.021Z,93695.29
2018-03-19T12:41:18.674Z,93702.48
2018-03-19T12:43:45.403Z,93698.91
2018-03-19T12:46:12.080Z,93699.73
2018-03-19T12:51:10.333Z,93681.80
2018-03-19T12:53:37.218Z,93700.02
2018-03-19T12:56:04.045Z,93716.03
2018-03-19T12:58:31.061Z,93722.33
2018-03-19T13:08:54.313Z,93721.33
2018-03-19T13:11:21.333Z,93699.94
2018-03-19T13:13:48.484Z,93708.61
2018-03-19T13:16:15.122Z,93707.11
2018-03-19T13:18:42.230Z,93695.19
2018-03-19T13:21:09.121Z,93688.34
2018-03-19T13:23:35.758Z,93701.21
2018-03-19T13:26:02.722Z,93683.69
2018-03-19T13:28:29.981Z,93702.64
2018-03-19T13:30:57.086Z,93703.66
2018-03-19T13:33:25.092Z,93700.17
2018-03-19T13:35:53.902Z,93692.42
2018-03-19T13:38:21.145Z,93683.06
2018-03-19T13:40:48.195Z,93710.78
2018-03-19T13:43:15.320Z,93701.47
2018-03-19T13:45:42.020Z,93701.47
2018-03-19T13:48:09.772Z,93696.21
2018-03-19T13:50:36.469Z,93692.02
2018-03-19T13:53:03.322Z,93686.83
2018-03-19T13:55:29.823Z,93694.70
2018-03-19T13:57:57.564Z,93696.19
2018-03-19T14:03:04.528Z,93683.98
2018-03-19T14:05:31.530Z,93682.63
2018-03-19T14:07:58.115Z,93694.25
2018-03-19T14:10:24.927Z,93686.33
2018-03-19T14:12:51.400Z,93686.59
2018-03-19T14:15:17.809Z,93679.88
2018-03-19T14:17:44.342Z,93648.73
2018-03-19T14:20:10.941Z,93650.27
2018-03-19T14:22:37.314Z,93660.09
2018-03-19T14:25:03.722Z,93675.58
2018-03-19T14:27:30.132Z,93670.02
2018-03-19T14:29:56.683Z,93662.16
2018-03-19T14:32:23.440Z,93657.05
2018-03-19T14:34:49.832Z,93655.99
2018-03-19T14:37:16.265Z,93667.59
2018-03-19T14:39:42.693Z,93638.61
2018-03-19T14:42:09.206Z,93642.78
2018-03-19T14:44:36.441Z,93642.85
2018-03-19T14:47:03.124Z,93631.67
2018-03-19T14:49:29.724Z,93640.17
2018-03-19T14:51:56.083Z,93644.04
2018-03-19T14:54:22.452Z,93641.60
2018-03-19T14:56:49.073Z,93644.78
2018-03-19T14:59:15.457Z,93643.67
2018-03-19T15:01:41.949Z,93644.34
2018-03-19T15:04:08.295Z,93639.61
2018-03-19T15:06:34.739Z,93650.99
2018-03-19T15:09:01.082Z,93646.83
2018-03-19T15:11:27.439Z,93648.21
2018-03-19T15:13:53.847Z,93648.95
2018-03-19T15:16:20.201Z,93652.89
2018-03-19T15:18:46.818Z,93617.58
2018-03-19T15:21:13.173Z,93651.09
2018-03-19T15:23:39.606Z,93642.28
2018-03-19T15:26:05.957Z,93639.27
2018-03-19T15:28:32.313Z,93637.84
2018-03-19T15:30:58.818Z,93622.53
2018-03-19T15:33:25.297Z,93631.00
2018-03-19T15:35:51.770Z,93638.72
2018-03-19T15:38:18.118Z,93630.45
2018-03-19T15:40:44.834Z,93623.24
2018-03-19T15:43:11.192Z,93611.52
2018-03-19T15:45:37.585Z,93612.27
2018-03-19T15:48:03.979Z,93613.52
2018-03-19T15:50:30.325Z,93609.75
2018-03-19T15:52:56.807Z,93609.22
2018-03-19T15:55:23.196Z,93605.12
2018-03-19T15:57:49.578Z,93612.27
2018-03-19T16:00:15.993Z,93610.98
2018-03-19T16:02:42.427Z,93602.91
2018-03-19T16:05:08.798Z,93616.93
2018-03-19T16:07:35.185Z,93589.86
2018-03-19T16:10:01.563Z,93605.38
2018-03-19T16:12:27.988Z,93607.55
2018-03-19T16:14:54.576Z,93611.23
2018-03-19T16:17:21.038Z,93609.47
2018-03-19T16:19:47.449Z,93613.60
2018-03-19T16:22:13.838Z,93602.83
2018-03-19T16:24:40.182Z,93604.11
2018-03-19T16:27:06.525Z,93594.59
2018-03-19T16:29:32.937Z,93622.80
2018-03-19T16:31:59.306Z,93625.41
2018-03-19T16:34:25.673Z,93627.03
2018-03-19T16:36:52.008Z,93626.20
2018-03-19T16:39:18.386Z,93635.56
2018-03-19T16:41:44.757Z,93631.24
2018-03-19T16:44:11.102Z,93637.09
2018-03-19T16:46:37.506Z,93645.53
2018-03-19T16:49:03.918Z,93648.20
2018-03-19T16:51:30.320Z,93653.25
2018-03-19T16:53:56.800Z,93664.69
2018-03-19T16:56:23.305Z,93661.80
2018-03-19T16:58:49.634Z,93671.84
2018-03-19T17:01:16.009Z,93650.77
2018-03-19T17:03:42.405Z,93663.73
2018-03-19T17:06:08.788Z,93654.74
2018-03-19T17:08:35.119Z,93668.52
2018-03-19T17:11:01.453Z,93656.02
2018-03-19T17:13:27.844Z,93664.50
2018-03-19T17:15:54.194Z,93654.52
2018-03-19T17:18:20.604Z,93668.41
2018-03-19T17:20:46.955Z,93670.27
2018-03-19T17:23:13.330Z,93677.29
2018-03-19T17:25:39.661Z,93669.05
2018-03-19T17:28:06.006Z,93676.88
2018-03-19T17:30:32.459Z,93666.71
2018-03-19T17:32:58.842Z,93691.84
2018-03-19T17:35:25.215Z,93683.97
2018-03-19T17:37:51.549Z,93685.29
2018-03-19T17:40:17.995Z,93675.22
2018-03-19T17:42:44.346Z,93673.59
2018-03-19T17:45:10.708Z,93674.97
2018-03-19T17:47:37.097Z,93681.15
2018-03-19T17:50:03.430Z,93686.31
2018-03-19T17:52:29.760Z,93687.89
2018-03-19T17:54:56.145Z,93679.09
2018-03-19T17:57:22.542Z,93692.53
2018-03-19T17:59:48.879Z,93691.53
2018-03-19T18:02:15.235Z,93685.12
2018-03-19T18:04:41.591Z,93690.19
2018-03-19T18:07:07.976Z,93690.73
2018-03-19T18:09:34.292Z,93697.16
2018-03-19T18:12:00.629Z,93668.06
2018-03-19T18:14:26.985Z,93696.63
2018-03-19T18:16:53.339Z,93688.76
2018-03-19T18:19:19.743Z,93689.25
2018-03-19T18:21:46.072Z,93698.09
2018-03-19T18:24:12.463Z,93711.34
2018-03-19T18:26:38.786Z,93702.10
2018-03-19T18:29:05.147Z,93709.05
2018-03-19T18:31:31.483Z,93708.22
2018-03-19T18:33:57.863Z,93721.21
2018-03-19T18:36:24.234Z,93717.67
2018-03-19T18:38:50.601Z,93715.09
2018-03-19T18:41:17.192Z,93724.59
2018-03-19T18:43:43.650Z,93720.34
2018-03-19T18:46:10.015Z,93717.78
2018-03-19T18:48:36.341Z,93720.00
2018-03-19T18:51:02.778Z,93716.96
2018-03-19T18:53:29.204Z,93715.02
2018-03-19T18:55:55.532Z,93713.36
2018-03-19T18:58:22.101Z,93724.05
2018-03-19T19:00:48.485Z,93716.09
2018-03-19T19:03:14.891Z,93707.19
2018-03-19T19:05:41.221Z,93713.20
2018-03-19T19:08:07.605Z,93722.05
2018-03-19T19:10:33.998Z,93732.98
2018-03-19T19:13:00.379Z,93737.36
2018-03-19T19:15:26.720Z,93721.39
2018-03-19T19:17:53.042Z,93719.09
2018-03-19T19:20:19.390Z,93715.38
2018-03-19T19:22:45.726Z,93718.02
2018-03-19T19:25:12.089Z,93713.45
2018-03-19T19:27:38.413Z,93710.70
2018-03-19T19:30:04.765Z,93716.25
2018-03-19T19:32:31.088Z,93719.82
2018-03-19T19:34:57.493Z,93704.59
2018-03-19T19:37:23.914Z,93711.87
2018-03-19T19:39:50.282Z,93719.61
2018-03-19T19:42:16.603Z,93715.25
2018-03-19T19:44:42.950Z,93723.40
2018-03-19T19:47:09.310Z,93722.89
2018-03-19T19:49:35.687Z,93725.00
2018-03-19T19:52:02.019Z,93726.56
2018-03-19T19:54:28.435Z,93730.20
2018-03-19T19:56:54.770Z,93722.90
2018-03-19T19:59:21.137Z,93713.97
2018-03-19T20:01:47.461Z,93708.23
2018-03-19T20:04:13.940Z,93720.58
2018-03-19T20:06:40.266Z,93703.16
2018-03-19T20:09:06.652Z,93709.45
2018-03-19T20:11:32.980Z,93695.05
2018-03-19T20:13:59.342Z,93704.20
2018-03-19T20:16:25.682Z,93697.90
2018-03-19T20:18:52.093Z,93709.42
2018-03-19T20:21:18.459Z,93712.65
2018-03-19T20:23:44.826Z,93701.19
2018-03-19T20:26:11.200Z,93699.22
2018-03-19T20:28:37.529Z,93702.53
2018-03-19T20:31:03.856Z,93698.61
2018-03-19T20:33:30.197Z,93693.30
2018-03-19T20:35:56.560Z,93685.59
2018-03-19T20:38:23.026Z,93693.20
2018-03-19T20:40:49.380Z,93689.75
2018-03-19T20:43:15.712Z,93691.80
2018-03-19T20:45:42.140Z,93694.36
2018-03-19T20:48:08.465Z,93692.63
2018-03-19T20:50:34.831Z,93686.53
2018-03-19T20:53:01.192Z,93686.47
2018-03-19T20:55:27.509Z,93690.28
2018-03-19T20:57:53.891Z,93682.42
2018-03-19T21:00:20.274Z,93685.36
2018-03-19T21:02:46.606Z,93677.49
2018-03-19T21:05:13.050Z,93684.82
2018-03-19T21:07:39.450Z,93686.01
2018-03-19T21:10:05.785Z,93665.47
2018-03-19T21:12:32.158Z,93664.75
2018-03-19T21:14:58.502Z,93677.23
2018-03-19T21:17:24.987Z,93666.77
2018-03-19T21:19:51.364Z,93671.38
2018-03-19T21:22:17.872Z,93674.41
2018-03-19T21:24:44.201Z,93679.48
2018-03-19T21:27:10.537Z,93676.86
2018-03-19T21:29:36.883Z,93657.75
2018-03-19T21:32:03.218Z,93663.42
2018-03-19T21:34:29.542Z,93664.55
2018-03-19T21:36:55.875Z,93654.30
2018-03-19T21:39:22.270Z,93673.63
2018-03-19T21:41:48.623Z,93662.81
2018-03-19T21:44:14.965Z,93672.41
2018-03-19T21:46:41.349Z,93663.98
2018-03-19T21:49:07.714Z,93678.94
2018-03-19T21:51:34.046Z,93675.33
2018-03-19T21:54:00.441Z,93669.09
2018-03-19T21:56:26.909Z,93667.09
2018-03-19T21:58:53.169Z,93660.06
2018-03-19T22:01:19.630Z,93663.28
2018-03-19T22:03:45.958Z,93666.48
2018-03-19T22:06:12.290Z,93655.32
2018-03-19T22:08:38.674Z,93662.37
2018-03-19T22:11:05.071Z,93655.53
2018-03-19T22:13:31.438Z,93657.02
2018-03-19T22:15:57.811Z,93652.50
2018-03-19T22:18:24.173Z,93636.09
2018-03-19T22:20:50.513Z,93654.87
2018-03-19T22:23:16.883Z,93646.23
2018-03-19T22:25:43.221Z,93644.53
2018-03-19T22:28:09.546Z,93640.08
2018-03-19T22:30:35.888Z,93643.00
2018-03-19T22:33:02.245Z,93651.36
2018-03-19T22:35:28.574Z,93642.86
2018-03-19T22:37:54.948Z,93643.72
2018-03-19T22:40:21.344Z,93639.42
2018-03-19T22:42:47.730Z,93636.03
2018-03-19T22:45:14.064Z,93624.23
2018-03-19T22:47:40.434Z,93612.09
2018-03-19T22:50:06.764Z,93610.25
2018-03-19T22:52:33.174Z,93620.38
2018-03-19T22:54:59.509Z,93634.83
2018-03-19T22:57:25.841Z,93618.64
2018-03-19T22:59:52.191Z,93622.62
2018-03-19T23:02:18.534Z,93626.64
2018-03-19T23:04:44.922Z,93621.13
2018-03-19T23:07:11.250Z,93619.38
2018-03-19T23:09:37.577Z,93622.00
2018-03-19T23:12:03.946Z,93622.00
2018-03-19T23:14:30.272Z,93615.87
2018-03-19T23:16:56.602Z,93596.29
2018-03-19T23:19:22.944Z,93596.76
2018-03-19T23:21:49.304Z,93600.55
2018-03-19T23:24:15.738Z,93592.11
2018-03-19T23:26:42.297Z,93602.64
2018-03-19T23:29:08.667Z,93602.17
2018-03-19T23:31:35.006Z,93599.27
2018-03-19T23:34:01.385Z,93608.90
2018-03-19T23:36:27.718Z,93619.84
2018-03-19T23:38:54.123Z,93618.57
2018-03-19T23:41:20.553Z,93623.27
2018-03-19T23:43:46.940Z,93622.69
2018-03-19T23:46:13.262Z,93624.02
2018-03-19T23:48:39.715Z,93611.27
2018-03-19T23:51:06.056Z,93614.31
2018-03-19T23:53:32.446Z,93619.29
2018-03-19T23:55:58.809Z,93615.59
2018-03-19T23:58:25.162Z,93613.64
